createdAt,value
2023-06-21T00:00:41.818Z,101149.59
2023-06-21T00:03:08.426Z,101146.31
2023-06-21T00:05:34.963Z,101161.94
2023-06-21T00:08:01.448Z,101157.56
2023-06-21T00:10:29.718Z,101153.19
2023-06-21T00:12:56.769Z,101149.34
2023-06-21T00:15:23.749Z,101144.66
2023-06-21T00:17:50.689Z,101150.16
2023-06-21T00:20:17.818Z,101148.50
2023-06-21T00:22:48.243Z,101147.41
2023-06-21T00:25:16.081Z,101148.25
2023-06-21T00:27:45.782Z,101147.97
2023-06-21T00:30:12.264Z,101149.88
2023-06-21T00:32:39.933Z,101150.69
2023-06-21T00:35:07.434Z,101147.97
2023-06-21T00:37:34.978Z,101159.47
2023-06-21T00:40:01.483Z,101167.16
2023-06-21T00:42:28.172Z,101172.06
2023-06-21T00:44:54.659Z,101168.78
2023-06-21T00:47:21.249Z,101172.63
2023-06-21T00:49:47.741Z,101173.72
2023-06-21T00:52:14.870Z,101174.81
2023-06-21T00:54:42.679Z,101174.28
2023-06-21T00:57:09.254Z,101181.69
2023-06-21T00:59:36.496Z,101185.25
2023-06-21T01:02:03.372Z,101187.44
2023-06-21T01:04:33.017Z,101192.66
2023-06-21T01:07:18.424Z,101190.72
2023-06-21T01:10:03.872Z,101192.63
2023-06-21T01:13:10.930Z,101203.03
2023-06-21T01:15:44.837Z,101200.56
2023-06-21T01:18:14.969Z,101200.31
2023-06-21T01:20:49.979Z,101194.28
2023-06-21T01:23:39.554Z,101206.34
2023-06-21T01:26:11.267Z,101204.41
2023-06-21T01:28:56.931Z,101202.78
2023-06-21T01:31:24.501Z,101221.41
2023-06-21T01:33:52.001Z,101214.53
2023-06-21T01:36:19.386Z,101214.25
2023-06-21T01:38:45.818Z,101208.22
2023-06-21T01:41:13.648Z,101209.88
2023-06-21T01:43:40.602Z,101206.28
2023-06-21T01:46:08.818Z,101218.31
2023-06-21T01:48:36.212Z,101226.81
2023-06-21T01:51:05.167Z,101217.22
2023-06-21T01:53:35.050Z,101209.84
2023-06-21T01:56:08.503Z,101214.22
2023-06-21T01:58:35.422Z,101217.50
2023-06-21T02:01:04.665Z,101217.50
2023-06-21T02:03:32.812Z,101225.19
2023-06-21T02:06:02.784Z,101231.22
2023-06-21T02:08:30.117Z,101223.53
2023-06-21T02:10:56.632Z,101226.84
2023-06-21T02:13:23.220Z,101236.72
2023-06-21T02:15:49.716Z,101246.59
2023-06-21T02:18:16.241Z,101247.94
2023-06-21T02:20:42.748Z,101249.88
2023-06-21T02:23:10.289Z,101247.69
2023-06-21T02:25:38.116Z,101248.22
2023-06-21T02:28:05.414Z,101243.84
2023-06-21T02:30:31.946Z,101254.81
2023-06-21T02:32:58.570Z,101261.09
2023-06-21T02:35:25.346Z,101269.59
2023-06-21T02:37:52.233Z,101270.41
2023-06-21T02:40:18.820Z,101261.38
2023-06-21T02:42:45.584Z,101274.53
2023-06-21T02:45:12.304Z,101276.44
2023-06-21T02:47:39.070Z,101270.13
2023-06-21T02:50:07.048Z,101268.50
2023-06-21T02:52:34.472Z,101273.16
2023-06-21T02:55:04.001Z,101279.97
2023-06-21T02:57:30.860Z,101273.94
2023-06-21T03:00:00.303Z,101277.78
2023-06-21T03:02:34.542Z,101283.25
2023-06-21T03:05:01.691Z,101292.56
2023-06-21T03:07:28.902Z,101295.56
2023-06-21T03:09:56.346Z,101281.88
2023-06-21T03:12:22.815Z,101287.34
2023-06-21T03:14:50.220Z,101288.19
2023-06-21T03:17:17.267Z,101287.34
2023-06-21T03:19:43.690Z,101288.19
2023-06-21T03:22:10.861Z,101289.00
2023-06-21T03:24:37.877Z,101304.63
2023-06-21T03:27:04.882Z,101307.34
2023-06-21T03:29:34.599Z,101310.09
2023-06-21T03:32:01.399Z,101311.19
2023-06-21T03:34:27.909Z,101317.22
2023-06-21T03:36:54.416Z,101318.28
2023-06-21T03:39:23.855Z,101326.78
2023-06-21T03:41:50.349Z,101336.66
2023-06-21T03:44:17.844Z,101339.38
2023-06-21T03:46:44.432Z,101346.25
2023-06-21T03:49:11.047Z,101341.31
2023-06-21T03:51:37.874Z,101337.47
2023-06-21T03:54:04.909Z,101336.13
2023-06-21T03:56:31.474Z,101333.94
2023-06-21T03:58:59.848Z,101340.81
2023-06-21T04:01:26.430Z,101341.38
2023-06-21T04:03:53.039Z,101359.47
2023-06-21T04:06:19.526Z,101356.19
2023-06-21T04:08:46.015Z,101361.38
2023-06-21T04:11:12.481Z,101362.22
2023-06-21T04:13:38.968Z,101362.22
2023-06-21T04:16:05.422Z,101362.22
2023-06-21T04:18:32.114Z,101363.84
2023-06-21T04:20:58.574Z,101368.78
2023-06-21T04:23:27.413Z,101362.22
2023-06-21T04:25:54.087Z,101372.63
2023-06-21T04:28:25.856Z,101373.19
2023-06-21T04:30:53.942Z,101361.16
2023-06-21T04:33:20.432Z,101363.63
2023-06-21T04:35:46.868Z,101384.75
2023-06-21T04:38:13.618Z,101383.69
2023-06-21T04:40:41.625Z,101385.34
2023-06-21T04:43:08.370Z,101386.78
2023-06-21T04:45:34.995Z,101387.31
2023-06-21T04:48:01.741Z,101390.34
2023-06-21T04:50:28.546Z,101399.69
2023-06-21T04:53:00.093Z,101396.13
2023-06-21T04:55:27.803Z,101388.72
2023-06-21T04:57:54.818Z,101380.03
2023-06-21T05:00:21.305Z,101370.69
2023-06-21T05:02:48.689Z,101389.38
2023-06-21T05:05:15.948Z,101379.75
2023-06-21T05:07:42.503Z,101387.19
2023-06-21T05:10:10.396Z,101394.59
2023-06-21T05:12:37.310Z,101397.06
2023-06-21T05:15:04.410Z,101398.16
2023-06-21T05:17:30.886Z,101399.25
2023-06-21T05:19:57.319Z,101400.28
2023-06-21T05:22:23.806Z,101404.06
2023-06-21T05:24:50.298Z,101399.88
2023-06-21T05:27:16.776Z,101397.72
2023-06-21T05:29:43.264Z,101393.66
2023-06-21T05:32:09.757Z,101404.06
2023-06-21T05:34:36.189Z,101404.03
2023-06-21T05:37:02.700Z,101410.59
2023-06-21T05:39:29.574Z,101408.88
2023-06-21T05:41:55.988Z,101413.00
2023-06-21T05:44:22.445Z,101417.78
2023-06-21T05:46:48.869Z,101422.31
2023-06-21T05:49:15.358Z,101421.47
2023-06-21T05:51:41.892Z,101429.69
2023-06-21T05:54:08.542Z,101439.28
2023-06-21T05:56:38.257Z,101427.91
2023-06-21T05:59:05.366Z,101431.09
2023-06-21T06:01:31.984Z,101444.47
2023-06-21T06:03:58.614Z,101449.56
2023-06-21T06:06:35.623Z,101452.09
2023-06-21T06:09:02.493Z,101465.84
2023-06-21T06:11:29.024Z,101465.16
2023-06-21T06:13:55.567Z,101459.50
2023-06-21T06:16:22.054Z,101462.91
2023-06-21T06:18:48.547Z,101467.75
2023-06-21T06:21:15.828Z,101470.41
2023-06-21T06:23:42.313Z,101481.13
2023-06-21T06:26:10.921Z,101474.16
2023-06-21T06:28:37.598Z,101480.03
2023-06-21T06:31:04.210Z,101482.25
2023-06-21T06:33:30.686Z,101490.16
2023-06-21T06:35:57.452Z,101493.16
2023-06-21T06:38:23.933Z,101496.06
2023-06-21T06:40:50.434Z,101495.88
2023-06-21T06:43:16.946Z,101498.91
2023-06-21T06:45:43.451Z,101506.00
2023-06-21T06:48:09.917Z,101505.06
2023-06-21T06:50:39.344Z,101513.22
2023-06-21T06:53:06.632Z,101510.97
2023-06-21T06:55:33.129Z,101512.66
2023-06-21T06:58:05.629Z,101509.75
2023-06-21T07:00:33.103Z,101518.16
2023-06-21T07:02:59.642Z,101528.03
2023-06-21T07:05:27.452Z,101525.69
2023-06-21T07:07:55.712Z,101538.19
2023-06-21T07:10:23.471Z,101526.78
2023-06-21T07:12:49.891Z,101530.44
2023-06-21T07:15:16.343Z,101537.00
2023-06-21T07:17:42.829Z,101537.00
2023-06-21T07:20:10.035Z,101543.72
2023-06-21T07:22:36.654Z,101543.63
2023-06-21T07:25:03.936Z,101542.22
2023-06-21T07:27:30.824Z,101542.50
2023-06-21T07:29:57.709Z,101551.38
2023-06-21T07:32:28.857Z,101550.00
2023-06-21T07:34:58.657Z,101547.75
2023-06-21T07:37:25.613Z,101545.03
2023-06-21T07:39:55.045Z,101554.63
2023-06-21T07:42:23.424Z,101548.50
2023-06-21T07:44:52.146Z,101553.72
2023-06-21T07:47:19.216Z,101556.28
2023-06-21T07:49:45.718Z,101554.75
2023-06-21T07:52:12.403Z,101556.78
2023-06-21T07:54:39.080Z,101564.59
2023-06-21T07:57:05.991Z,101562.16
2023-06-21T07:59:33.558Z,101553.72
2023-06-21T08:02:00.151Z,101558.66
2023-06-21T08:04:27.057Z,101563.16
2023-06-21T08:06:53.658Z,101558.78
2023-06-21T08:09:20.121Z,101569.66
2023-06-21T08:11:46.607Z,101568.31
2023-06-21T08:14:13.370Z,101559.81
2023-06-21T08:16:39.995Z,101563.91
2023-06-21T08:19:06.824Z,101569.97
2023-06-21T08:21:33.304Z,101571.56
2023-06-21T08:23:59.725Z,101577.69
2023-06-21T08:26:26.177Z,101583.72
2023-06-21T08:28:52.685Z,101574.88
2023-06-21T08:31:19.212Z,101576.84
2023-06-21T08:33:45.899Z,101577.94
2023-06-21T08:36:12.891Z,101579.94
2023-06-21T08:38:39.389Z,101587.63
2023-06-21T08:41:06.200Z,101590.03
2023-06-21T08:43:32.903Z,101588.25
2023-06-21T08:46:06.109Z,101593.41
2023-06-21T08:48:36.971Z,101588.81
2023-06-21T08:51:06.798Z,101589.44
2023-06-21T08:53:40.036Z,101587.41
2023-06-21T08:56:10.125Z,101594.56
2023-06-21T08:58:55.486Z,101584.50
2023-06-21T09:01:24.142Z,101600.50
2023-06-21T09:03:59.301Z,101598.75
2023-06-21T09:06:27.754Z,101603.78
2023-06-21T09:08:55.260Z,101608.25
2023-06-21T09:11:23.114Z,101602.19
2023-06-21T09:13:50.599Z,101607.56
2023-06-21T09:16:17.643Z,101606.44
2023-06-21T09:18:45.050Z,101606.88
2023-06-21T09:21:12.451Z,101613.69
2023-06-21T09:23:40.581Z,101607.09
2023-06-21T09:26:08.231Z,101604.03
2023-06-21T09:28:34.824Z,101614.31
2023-06-21T09:31:01.470Z,101613.13
2023-06-21T09:33:28.406Z,101615.94
2023-06-21T09:35:55.042Z,101613.81
2023-06-21T09:38:25.353Z,101610.56
2023-06-21T09:40:52.364Z,101613.19
2023-06-21T09:43:22.972Z,101614.34
2023-06-21T09:46:04.539Z,101608.94
2023-06-21T09:48:39.102Z,101610.09
2023-06-21T09:51:07.625Z,101622.50
2023-06-21T09:53:34.076Z,101622.03
2023-06-21T09:56:01.913Z,101620.53
2023-06-21T09:58:29.380Z,101617.63
2023-06-21T10:01:01.353Z,101622.22
2023-06-21T10:03:28.410Z,101621.91
2023-06-21T10:06:03.037Z,101624.72
2023-06-21T10:08:32.804Z,101631.91
2023-06-21T10:10:59.232Z,101629.94
2023-06-21T10:13:27.644Z,101633.84
2023-06-21T10:15:56.493Z,101643.88
2023-06-21T10:18:24.385Z,101637.81
2023-06-21T10:20:58.079Z,101644.69
2023-06-21T10:23:30.053Z,101644.19
2023-06-21T10:26:01.740Z,101641.91
2023-06-21T10:28:31.966Z,101638.63
2023-06-21T10:31:01.043Z,101643.53
2023-06-21T10:33:31.689Z,101640.56
2023-06-21T10:36:01.381Z,101645.00
2023-06-21T10:38:35.702Z,101655.66
2023-06-21T10:41:04.851Z,101647.13
2023-06-21T10:43:31.930Z,101648.22
2023-06-21T10:45:59.602Z,101655.38
2023-06-21T10:48:27.231Z,101654.09
2023-06-21T10:50:53.770Z,101660.53
2023-06-21T10:53:22.790Z,101659.56
2023-06-21T10:55:50.580Z,101659.22
2023-06-21T10:58:18.064Z,101660.16
2023-06-21T11:00:48.775Z,101664.44
2023-06-21T11:03:17.606Z,101664.78
2023-06-21T11:05:45.230Z,101675.28
2023-06-21T11:08:15.369Z,101681.03
2023-06-21T11:10:50.762Z,101669.06
2023-06-21T11:13:33.513Z,101674.81
2023-06-21T11:16:18.650Z,101686.13
2023-06-21T11:19:00.772Z,101669.06
2023-06-21T11:21:43.589Z,101681.69
2023-06-21T11:24:12.161Z,101673.81
2023-06-21T11:27:04.799Z,101673.00
2023-06-21T11:29:37.222Z,101677.28
2023-06-21T11:32:14.049Z,101679.72
2023-06-21T11:34:57.603Z,101679.88
2023-06-21T11:37:37.445Z,101686.94
2023-06-21T11:40:06.816Z,101680.06
2023-06-21T11:42:50.263Z,101682.81
2023-06-21T11:45:21.627Z,101682.31
2023-06-21T11:48:14.347Z,101684.94
2023-06-21T11:50:45.905Z,101680.03
2023-06-21T11:53:19.232Z,101675.28
2023-06-21T11:55:47.363Z,101673.84
2023-06-21T11:58:14.230Z,101678.59
2023-06-21T12:00:42.145Z,101687.59
2023-06-21T12:03:12.058Z,101683.97
2023-06-21T12:05:54.860Z,101683.28
2023-06-21T12:08:23.974Z,101676.91
2023-06-21T12:10:50.416Z,101679.66
2023-06-21T12:13:21.520Z,101682.88
2023-06-21T12:15:59.359Z,101682.78
2023-06-21T12:18:28.283Z,101685.75
2023-06-21T12:20:56.187Z,101688.72
2023-06-21T12:23:23.699Z,101683.31
2023-06-21T12:25:55.399Z,101682.84
2023-06-21T12:28:23.524Z,101695.13
2023-06-21T12:30:51.167Z,101695.56
2023-06-21T12:33:18.711Z,101695.44
2023-06-21T12:35:45.877Z,101704.78
2023-06-21T12:38:19.182Z,101704.09
2023-06-21T12:40:52.714Z,101702.81
2023-06-21T12:43:41.250Z,101712.47
2023-06-21T12:46:08.324Z,101717.88
2023-06-21T12:48:36.469Z,101724.91
2023-06-21T12:51:03.548Z,101725.94
2023-06-21T12:53:31.704Z,101729.53
2023-06-21T12:56:06.488Z,101731.34
2023-06-21T12:58:33.357Z,101735.84
2023-06-21T13:01:01.124Z,101740.91
2023-06-21T13:03:28.088Z,101736.28
2023-06-21T13:05:55.082Z,101737.28
2023-06-21T13:08:21.567Z,101745.41
2023-06-21T13:10:48.152Z,101747.72
2023-06-21T13:13:14.651Z,101743.06
2023-06-21T13:15:41.285Z,101741.53
2023-06-21T13:18:08.743Z,101750.75
2023-06-21T13:20:37.326Z,101747.25
2023-06-21T13:23:03.852Z,101754.09
2023-06-21T13:25:30.481Z,101752.31
2023-06-21T13:27:57.459Z,101749.88
2023-06-21T13:30:24.245Z,101762.72
2023-06-21T13:32:50.786Z,101755.44
2023-06-21T13:35:17.404Z,101754.13
2023-06-21T13:37:43.871Z,101750.94
2023-06-21T13:40:10.761Z,101752.00
2023-06-21T13:42:37.486Z,101754.91
2023-06-21T13:45:04.792Z,101747.97
2023-06-21T13:47:31.483Z,101757.63
2023-06-21T13:49:58.079Z,101743.00
2023-06-21T13:52:25.156Z,101742.72
2023-06-21T13:54:51.788Z,101746.91
2023-06-21T13:57:18.276Z,101750.09
2023-06-21T13:59:46.653Z,101748.91
2023-06-21T14:02:14.120Z,101747.00
2023-06-21T14:04:42.216Z,101749.00
2023-06-21T14:07:11.207Z,101750.81
2023-06-21T14:09:42.007Z,101752.94
2023-06-21T14:12:09.487Z,101763.09
2023-06-21T14:14:43.069Z,101758.00
2023-06-21T14:17:11.752Z,101752.28
2023-06-21T14:19:41.962Z,101760.34
2023-06-21T14:22:09.506Z,101760.16
2023-06-21T14:24:36.044Z,101765.53
2023-06-21T14:27:02.505Z,101762.53
2023-06-21T14:29:29.310Z,101764.41
2023-06-21T14:31:55.887Z,101760.84
2023-06-21T14:34:22.423Z,101765.88
2023-06-21T14:36:49.062Z,101765.19
2023-06-21T14:39:15.665Z,101772.63
2023-06-21T14:41:42.152Z,101771.91
2023-06-21T14:44:08.656Z,101766.41
2023-06-21T14:46:35.303Z,101762.44
2023-06-21T14:49:02.096Z,101766.00
2023-06-21T14:51:28.626Z,101781.78
2023-06-21T14:53:56.621Z,101763.91
2023-06-21T14:56:23.875Z,101766.81
2023-06-21T14:58:50.504Z,101765.41
2023-06-21T15:01:19.070Z,101767.22
2023-06-21T15:03:46.397Z,101772.22
2023-06-21T15:06:13.063Z,101771.06
2023-06-21T15:08:39.549Z,101776.72
2023-06-21T15:11:06.758Z,101779.41
2023-06-21T15:13:33.803Z,101781.59
2023-06-21T15:16:00.425Z,101774.88
2023-06-21T15:18:26.979Z,101784.22
2023-06-21T15:20:53.497Z,101780.25
2023-06-21T15:23:20.072Z,101791.91
2023-06-21T15:25:46.536Z,101789.97
2023-06-21T15:28:12.925Z,101778.44
2023-06-21T15:30:39.483Z,101784.84
2023-06-21T15:33:06.507Z,101784.38
2023-06-21T15:35:33.100Z,101790.63
2023-06-21T15:37:59.540Z,101787.19
2023-06-21T15:40:26.012Z,101779.47
2023-06-21T15:42:52.650Z,101781.31
2023-06-21T15:45:19.286Z,101782.28
2023-06-21T15:47:45.841Z,101786.53
2023-06-21T15:50:14.149Z,101792.13
2023-06-21T15:52:40.731Z,101783.13
2023-06-21T15:55:07.959Z,101793.63
2023-06-21T15:57:35.028Z,101786.06
2023-06-21T16:00:01.589Z,101784.25
2023-06-21T16:02:28.160Z,101786.91
2023-06-21T16:04:54.941Z,101778.88
2023-06-21T16:07:22.047Z,101791.31
2023-06-21T16:09:48.853Z,101786.22
2023-06-21T16:12:15.355Z,101789.84
2023-06-21T16:14:41.828Z,101783.91
2023-06-21T16:17:08.475Z,101782.75
2023-06-21T16:19:36.803Z,101787.69
2023-06-21T16:22:03.865Z,101782.56
2023-06-21T16:24:30.375Z,101788.44
2023-06-21T16:26:57.026Z,101786.91
2023-06-21T16:29:23.633Z,101790.28
2023-06-21T16:31:51.075Z,101791.22
2023-06-21T16:34:17.641Z,101794.63
2023-06-21T16:36:44.087Z,101789.50
2023-06-21T16:39:11.619Z,101793.03
2023-06-21T16:41:38.107Z,101786.78
2023-06-21T16:44:04.592Z,101793.66
2023-06-21T16:46:31.062Z,101792.78
2023-06-21T16:48:57.526Z,101792.56
2023-06-21T16:51:25.585Z,101786.75
2023-06-21T16:53:52.379Z,101788.94
2023-06-21T16:56:24.111Z,101795.91
2023-06-21T16:58:51.840Z,101794.03
2023-06-21T17:01:18.352Z,101799.59
2023-06-21T17:03:45.075Z,101796.06
2023-06-21T17:06:11.642Z,101795.06
2023-06-21T17:08:38.163Z,101796.50
2023-06-21T17:11:04.599Z,101798.75
2023-06-21T17:13:31.117Z,101793.81
2023-06-21T17:16:00.132Z,101796.72
2023-06-21T17:18:26.643Z,101803.53
2023-06-21T17:20:53.130Z,101824.31
2023-06-21T17:23:19.547Z,101811.06
2023-06-21T17:25:46.037Z,101817.13
2023-06-21T17:28:12.525Z,101815.91
2023-06-21T17:30:39.075Z,101823.03
2023-06-21T17:33:07.705Z,101819.66
2023-06-21T17:35:34.468Z,101815.13
2023-06-21T17:38:00.992Z,101817.00
2023-06-21T17:40:27.497Z,101816.09
2023-06-21T17:42:53.989Z,101813.50
2023-06-21T17:45:20.519Z,101815.03
2023-06-21T17:47:47.155Z,101823.34
2023-06-21T17:50:13.866Z,101823.88
2023-06-21T17:52:40.385Z,101824.56
2023-06-21T17:55:07.008Z,101817.16
2023-06-21T17:57:33.448Z,101814.56
2023-06-21T17:59:59.908Z,101818.09
2023-06-21T18:02:28.434Z,101821.38
2023-06-21T18:04:56.060Z,101822.78
2023-06-21T18:07:22.554Z,101807.16
2023-06-21T18:09:48.981Z,101807.53
2023-06-21T18:12:15.945Z,101806.50
2023-06-21T18:14:42.551Z,101802.09
2023-06-21T18:17:09.016Z,101797.97
2023-06-21T18:19:35.742Z,101805.25
2023-06-21T18:22:12.723Z,101807.78
2023-06-21T18:24:40.668Z,101812.78
2023-06-21T18:27:08.301Z,101808.56
2023-06-21T18:29:34.769Z,101803.22
2023-06-21T18:32:02.084Z,101796.25
2023-06-21T18:34:28.798Z,101795.44
2023-06-21T18:36:55.276Z,101797.44
2023-06-21T18:39:21.797Z,101790.78
2023-06-21T18:41:48.609Z,101788.59
2023-06-21T18:44:15.057Z,101796.59
2023-06-21T18:46:41.538Z,101793.53
2023-06-21T18:49:08.042Z,101791.41
2023-06-21T18:51:34.521Z,101787.41
2023-06-21T18:54:01.947Z,101791.44
2023-06-21T18:56:28.439Z,101791.06
2023-06-21T18:58:57.586Z,101793.09
2023-06-21T19:01:25.108Z,101782.28
2023-06-21T19:03:51.859Z,101778.69
2023-06-21T19:06:18.659Z,101787.25
2023-06-21T19:08:45.088Z,101783.28
2023-06-21T19:11:11.518Z,101779.75
2023-06-21T19:13:39.395Z,101773.59
2023-06-21T19:16:05.882Z,101770.34
2023-06-21T19:18:32.353Z,101769.09
2023-06-21T19:20:58.801Z,101769.94
2023-06-21T19:23:25.224Z,101772.50
2023-06-21T19:25:51.677Z,101776.66
2023-06-21T19:28:18.457Z,101775.25
2023-06-21T19:30:54.762Z,101781.84
2023-06-21T19:33:21.886Z,101771.66
2023-06-21T19:35:48.326Z,101780.03
2023-06-21T19:38:14.865Z,101768.81
2023-06-21T19:40:47.894Z,101773.59
2023-06-21T19:43:14.934Z,101780.75
2023-06-21T19:45:41.486Z,101788.50
2023-06-21T19:50:35.902Z,101782.47
2023-06-21T19:53:02.413Z,101790.19
2023-06-21T19:55:28.890Z,101787.44
2023-06-21T19:57:55.644Z,101784.69
2023-06-21T20:00:24.611Z,101796.78
2023-06-21T20:02:51.501Z,101802.25
2023-06-21T20:05:20.124Z,101799.19
2023-06-21T20:07:47.086Z,101803.81
2023-06-21T20:10:13.546Z,101819.16
2023-06-21T20:12:40.106Z,101820.19
2023-06-21T20:15:06.977Z,101810.34
2023-06-21T20:17:33.419Z,101823.56
2023-06-21T20:19:59.918Z,101822.22
2023-06-21T20:22:26.361Z,101823.06
2023-06-21T20:24:53.197Z,101818.59
2023-06-21T20:27:20.228Z,101822.13
2023-06-21T20:29:46.728Z,101821.81
2023-06-21T20:32:13.359Z,101827.22
2023-06-21T20:34:39.998Z,101821.09
2023-06-21T20:37:06.948Z,101826.28
2023-06-21T20:39:33.461Z,101831.41
2023-06-21T20:42:03.011Z,101845.06
2023-06-21T20:44:33.282Z,101848.63
2023-06-21T20:46:59.913Z,101851.09
2023-06-21T20:49:28.440Z,101845.22
2023-06-21T20:51:55.778Z,101853.53
2023-06-21T20:54:22.349Z,101850.16
2023-06-21T20:56:48.820Z,101856.28
2023-06-21T20:59:15.763Z,101849.47
2023-06-21T21:01:42.445Z,101853.00
2023-06-21T21:04:10.378Z,101859.03
2023-06-21T21:06:37.245Z,101862.34
2023-06-21T21:09:05.414Z,101868.91
2023-06-21T21:11:31.860Z,101868.94
2023-06-21T21:14:01.397Z,101869.47
2023-06-21T21:16:27.929Z,101883.16
2023-06-21T21:18:54.465Z,101895.22
2023-06-21T21:21:21.880Z,101896.81
2023-06-21T21:23:48.288Z,101897.78
2023-06-21T21:26:15.121Z,101896.38
2023-06-21T21:28:41.570Z,101888.56
2023-06-21T21:31:08.098Z,101891.31
2023-06-21T21:33:34.638Z,101887.09
2023-06-21T21:36:01.066Z,101880.84
2023-06-21T21:38:27.561Z,101872.13
2023-06-21T21:40:54.156Z,101871.03
2023-06-21T21:43:20.655Z,101873.75
2023-06-21T21:45:47.408Z,101875.44
2023-06-21T21:48:14.098Z,101882.00
2023-06-21T21:50:40.666Z,101886.41
2023-06-21T21:53:07.260Z,101876.28
2023-06-21T21:55:33.788Z,101881.38
2023-06-21T21:58:00.331Z,101879.66
2023-06-21T22:00:27.013Z,101875.19
2023-06-21T22:02:54.365Z,101878.97
2023-06-21T22:05:21.037Z,101882.84
2023-06-21T22:07:47.521Z,101892.19
2023-06-21T22:10:31.646Z,101897.69
2023-06-21T22:13:00.436Z,101900.81
2023-06-21T22:15:26.958Z,101908.00
2023-06-21T22:17:53.570Z,101904.19
2023-06-21T22:20:21.636Z,101891.06
2023-06-21T22:22:48.112Z,101897.16
2023-06-21T22:25:14.593Z,101897.69
2023-06-21T22:27:41.987Z,101894.38
2023-06-21T22:30:10.405Z,101888.69
2023-06-21T22:32:36.943Z,101892.53
2023-06-21T22:35:04.186Z,101893.84
2023-06-21T22:37:30.630Z,101893.28
2023-06-21T22:39:57.082Z,101905.31
2023-06-21T22:42:23.559Z,101902.00
2023-06-21T22:44:50.022Z,101905.22
2023-06-21T22:47:16.582Z,101905.75
2023-06-21T22:49:45.736Z,101910.63
2023-06-21T22:52:12.401Z,101917.69
2023-06-21T22:54:40.259Z,101912.16
2023-06-21T22:57:09.111Z,101909.91
2023-06-21T22:59:36.234Z,101906.25
2023-06-21T23:02:02.753Z,101906.00
2023-06-21T23:04:29.865Z,101905.44
2023-06-21T23:06:56.407Z,101896.91
2023-06-21T23:09:23.701Z,101900.78
2023-06-21T23:11:50.203Z,101904.28
2023-06-21T23:14:19.067Z,101912.47
2023-06-21T23:16:45.695Z,101911.91
2023-06-21T23:19:14.150Z,101908.63
2023-06-21T23:21:42.152Z,101914.34
2023-06-21T23:24:09.308Z,101917.06
2023-06-21T23:26:35.779Z,101906.84
2023-06-21T23:29:02.348Z,101920.41
2023-06-21T23:31:34.152Z,101907.50
2023-06-21T23:34:01.882Z,101922.00
2023-06-21T23:36:31.443Z,101920.19
2023-06-21T23:39:02.089Z,101923.94
2023-06-21T23:41:31.990Z,101923.78
2023-06-21T23:44:02.666Z,101927.09
2023-06-21T23:46:32.833Z,101927.59
2023-06-21T23:49:01.245Z,101923.22
2023-06-21T23:51:30.796Z,101929.75
2023-06-21T23:53:57.423Z,101922.63
2023-06-21T23:56:24.967Z,101918.81
2023-06-21T23:58:52.856Z,101927.75
